Strona główna
METAR-TAF:

METAR-TAF

Lotnisko :

RAF

Holbeach, Anglia

Szerokość geograficzna: 52-52N, Długość geograficzna: 000-09E, wysokość: 3 m

Aktualna obserwacja pogody

Raport powstał 9 godziny i 29 minut temu, godzina 15:50 UTC
Wiatr 8 kt od zachodnio-południowy zachód
Temperatura 6°C
Wilgotność 87%
Ciśnienie 1045 hPa
Widzialność 10 km lub więcej
Brak chmur poniżej 1500 m i brak chmur cumulonimbus

METAR: EGYH 201550Z 25008KT CAVOK 06/04 Q1045 RMK BLU

czas: 01:19 (01:19 UTC)


TAF: brakujący

Obserwacja i prognoza pogody dla ponad 4000 lotnisk (raport METAR i TAF).

Dostępne stacje oznaczono żółtymi i czerwonymi punktami na mapie.

Najedź kursorem aby zobaczyć nazwę stacji.

Kliknij aby zobaczyć obserwacje i prognozy pogody.

Aby zmienić mapę: kliknij na zielony przycisk z czarnym krzyżykiem, aby powiększyć; na zielony przycisk z myślnikiem, aby pomniejszyć; na zielone strzałki, aby przejść do map sąsiednich.


METAR-TAF: